Tiempo atmosférico en la estación meteorológica de Rascafría, Madrid (1159 m.)



Fecha
DESCASC
Temp. máxima en grados centígrados (hora)
DESCASC
Temp. mínima en grados centígrados (hora)
DESCASC
Temp. media en grados centígrados
DESCASC
Racha de viento máxima en m/sg (hora)
DESCASC
Velocidad máxima media en intervalos de 10 minutos(hora)
DESCASC
Precipitaciones diarias en mm
DESCASC
Precipitaciones de 00:00 a 06:00 en mm
DESCASC
Precipitaciones de 06:00 a 12:00 en mm
DESCASC
Precipitaciones de 12:00 a 18:00 en mm
DESCASC
Precipitaciones de 18:00 a 24:00 en mm
DESCASC
14-12-2019 9.9 (14:40) 5.4 (21:50) 7.6 13.61 (14:00) 4.72 (00:10) 0 0 0 0 0
13-12-2019 9.5 (13:30) 7.4 (08:30) 8.5 20.56 (18:20) 9.17 (09:00) 9.6 8.8 0.8 0 0
12-12-2019 8.5 (23:50) 1.9 (00:30) 5.2 20.28 (19:00) 7.5 (17:50) 65.4 0 8 28.8 28.6
11-12-2019 7.4 (08:30) 0.6 (00:00) 4 17.5 (19:50) 6.11 (21:50) 12.8 0 11.8 1 0
10-12-2019 17.2 (15:00) -3.7 (-00:0) 6.8 5.28 (16:10) 2.5 (15:20) 0 0 0 0 0
09-12-2019 11.8 (12:20) -0.7 (-00:0) 5.6 16.11 (14:10) 5 (13:50) 0.2 0.2 0 0 0
08-12-2019 10.9 (13:10) -1.7 (-00:0) 4.6 6.11 (09:20) 2.22 (10:50) 2.8 0 0.2 1.4 1.2
07-12-2019 14.5 (15:20) -2.6 (-00:0) 6 1.67 (13:40) 0.83 (15:40) 0 0 0 0 0
06-12-2019 13 (16:30) -1.1 (-00:0) 5.9 2.78 (14:00) 1.11 (14:00) 0 0 0 0 0
05-12-2019 9.1 (16:10) 1.5 (00:00) 5.3 1.94 (00:30) 0.83 (00:30) 1 0.6 0.4 0 0
04-12-2019 8 (15:00) -0.3 (00:00) 3.8 2.78 (14:40) 1.11 (14:40) 0.8 0.6 0.2 0 0
03-12-2019 10.2 (15:10) -4.6 (-00:0) 2.8 3.06 (16:40) 1.11 (16:40) 0.2 0 0.2 0 0
02-12-2019 10 (14:50) -2.1 (-00:0) 4 5.28 (15:50) 1.39 (13:40) 5 1 2 2 0
01-12-2019 3.1 (14:00) 0 (00:00) 1.5 2.22 (05:30) 0.83 (04:30) 11.6 0.2 0.4 6.4 4.6
30-11-2019 15.4 (14:30) 2.5 (00:00) 8.9 10.56 (20:10) 3.61 (22:30) 12.2 0 0.2 3.4 8.6
29-11-2019 13.6 (14:20) 5.1 (00:00) 9.4 12.78 (04:30) 6.11 (04:30) 12.2 9 2.2 0.8 0.2
28-11-2019 12 (13:30) 6.4 (00:00) 9.2 13.61 (00:20) 6.11 (07:30) 0.8 0.2 0 0 0.6
27-11-2019 10.9 (15:10) 5.8 (00:00) 8.3 13.89 (04:50) 6.94 (06:00) 5.6 5 0.2 0.2 0.2
26-11-2019 11.4 (23:00) 1.5 (00:00) 6.4 13.06 (22:40) 3.89 (22:20) 2 0.2 0.2 0.2 1.4
25-11-2019 11.1 (01:00) 6.6 (00:00) 8.9 16.11 (03:50) 7.22 (06:40) 7.2 5.6 1.2 0.2 0.2
24-11-2019 9.9 (23:59) 2.2 (00:00) 6 13.06 (01:10) 4.72 (00:40) 0.6 0 0 0.2 0.4
23-11-2019 6.2 (14:30) 1.6 (00:00) 3.9 21.39 (06:00) 9.17 (06:00) 34.2 21.4 9.4 1.8 1.6
22-11-2019 11.4 (15:20) 2.2 (00:00) 6.8 14.17 (22:00) 6.39 (23:59) 9 0.4 2.4 2 4.2
21-11-2019 6.2 (15:30) 0.8 (00:00) 3.5 2.22 (23:00) 1.11 (23:00) 4 0.8 1.2 1.6 0.4
20-11-2019 4.5 (13:30) -2.9 (-00:0) 0.8 2.5 (12:50) 0.83 (15:00) 3.8 0 0 2.4 1.4
19-11-2019 9.5 (12:50) -3.2 (-00:0) 3.1 5.83 (15:40) 1.67 (13:50) 0.2 0 0.2 0 0
18-11-2019 6.7 (16:00) 0.2 (00:00) 3.4 12.5 (00:20) 3.89 (00:20) 2 1.2 0.4 0.2 0.2
17-11-2019 7.4 (13:00) 0.8 (00:00) 4.1 14.17 (15:50) 6.11 (16:00) 21 0 0.4 20.2 0.4
16-11-2019 6 (13:40) -2.3 (-00:0) 1.9 8.33 (12:50) 2.78 (20:50) 11.2 0.4 3.4 6.6 0.8
15-11-2019 3.4 (14:00) -0.2 (00:00) 1.6 14.44 (02:50) 5.83 (02:50) 12.4 1 0.8 9 1.6

Gráficas

Temp. máximas Temp. mínimas Temp. medias Precipitaciones Rachas de viento máximas Velocidades máximas media en intervalos de 10 minutos

Datos horarios

Fecha y hora oficial Temperatura (ºC) Velocidad del viento (km/h) Dirección del viento Racha (km/h) Dirección de racha Precipitación (mm) Presión (hPa) Tendencia (hPa) Humedad (%)
2019-12-14 23:00:00 6.4 4 Norte 15 Sudeste 0 -- -- 71
2019-12-14 22:00:00 5.5 3 Este 19 Sudoeste 0 -- -- 74
2019-12-14 21:00:00 5.9 2 Este 16 Este 0 -- -- 72
2019-12-14 20:00:00 7.7 8 Nordeste 20 Sudeste 0 -- -- 66
2019-12-14 19:00:00 7.5 4 Este 21 Este 0 -- -- 67
2019-12-14 18:00:00 7.7 4 Oeste 30 Norte 0 -- -- 68
2019-12-14 17:00:00 8.2 6 Norte 29 Sudoeste 0 -- -- 65
2019-12-14 16:00:00 9.6 9 Noroeste 25 Noroeste 0 -- -- 61
2019-12-14 15:00:00 9.3 4 Norte 39 Norte 0 -- -- 60
2019-12-14 14:00:00 8.7 14 Norte 49 Nordeste 0 -- -- 65
2019-12-14 13:00:00 9.5 14 Noroeste 41 Noroeste 0 -- -- 60
2019-12-14 12:00:00 9.1 7 Oeste 37 Noroeste 0 -- -- 62
2019-12-14 11:00:00 7.4 8 Nordeste 23 Sudeste 0 -- -- 69
2019-12-14 10:00:00 6.6 9 Sudeste 25 Este 0 -- -- 70
2019-12-14 09:00:00 6 11 Sudeste 27 Sudeste 0 -- -- 73
2019-12-14 08:00:00 5.9 7 Sudeste 29 Sudeste 0 -- -- 73
2019-12-14 07:00:00 6.3 6 Sudeste 25 Sudeste 0 -- -- 71
2019-12-14 06:00:00 6.7 8 Sudeste 26 Sudeste 0 -- -- 71
2019-12-14 05:00:00 6.7 6 Sur 21 Nordeste 0 -- -- 71
2019-12-14 04:00:00 6.9 7 Este 22 Este 0 -- -- 70
2019-12-14 03:00:00 7.1 4 Nordeste 19 Norte 0 -- -- 73
2019-12-14 02:00:00 7.2 4 Sur 26 Sudeste 0 -- -- 75
2019-12-14 01:00:00 7.5 8 Sur 42 Oeste 0 -- -- 76
2019-12-14 00:00:00 7.8 12 Oeste 49 Oeste 0 -- -- 74
2019-12-13 23:00:00 7.9 15 Oeste 64 Oeste 0 -- -- 75
2019-12-13 22:00:00 8.2 21 Noroeste 63 Oeste 0 -- -- 74
2019-12-13 21:00:00 8.5 22 Oeste 62 Oeste 0 -- -- 74
2019-12-13 20:00:00 8.6 30 Oeste 72 Oeste 0 -- -- 79
2019-12-13 19:00:00 8.7 31 Oeste 74 Oeste 0 -- -- 80
2019-12-13 18:00:00 8.9 26 Oeste 68 Oeste 0 -- -- 83
2019-12-13 17:00:00 8.9 19 Oeste 61 Oeste 0 -- -- 86
2019-12-13 16:00:00 9.1 18 Oeste 51 Oeste 0 -- -- 85
2019-12-13 15:00:00 9 17 Oeste 54 Noroeste 0 -- -- 87
2019-12-13 14:00:00 9.2 22 Oeste 55 Oeste 0 -- -- 84
2019-12-13 13:00:00 8.9 20 Oeste 53 Oeste 0 -- -- 84
2019-12-13 12:00:00 8.4 18 Oeste 59 Noroeste 0 -- -- 85
2019-12-13 11:00:00 8 26 Oeste 66 Oeste 0 -- -- 83
2019-12-13 10:00:00 7.8 26 Oeste 68 Oeste 0 -- -- 82
2019-12-13 09:00:00 7.4 33 Oeste 72 Oeste 0.2 -- -- 81
2019-12-13 08:00:00 7.6 28 Oeste 72 Oeste 0.2 -- -- 82
2019-12-13 07:00:00 8.1 28 Oeste 72 Oeste 0.4 -- -- 83
2019-12-13 06:00:00 8.5 28 Oeste 64 Oeste 0.2 -- -- 82
2019-12-13 05:00:00 8.7 30 Oeste 67 Oeste 0.4 -- -- 85
2019-12-13 04:00:00 8.6 26 Oeste 55 Oeste 1.8 -- -- 90
2019-12-13 03:00:00 8.7 26 Oeste 53 Oeste 2.4 -- -- 90
2019-12-13 02:00:00 8.5 16 Oeste 46 Noroeste 2.4 -- -- 92
2019-12-13 01:00:00 8.5 13 Oeste 51 Oeste 1.6 -- -- 91
2019-12-13 00:00:00 8.3 17 Oeste 45 Oeste 5.2 -- -- 91
2019-12-12 23:00:00 8.3 18 Oeste 57 Oeste 3.6 -- -- 90
2019-12-12 22:00:00 7.7 18 Oeste 52 Oeste 2 -- -- 92
2019-12-12 21:00:00 7.5 15 Oeste 50 Sudoeste 6.2 -- -- 90
2019-12-12 20:00:00 7 17 Oeste 57 Noroeste 5.4 -- -- 91
2019-12-12 19:00:00 6.3 22 Oeste 73 Oeste 6.2 -- -- 92
2019-12-12 18:00:00 5.7 24 Oeste 59 Oeste 8.4 -- -- 89
2019-12-12 17:00:00 5.1 22 Oeste 57 Oeste 6.6 -- -- 88
2019-12-12 16:00:00 4.7 23 Oeste 54 Oeste 2.4 -- -- 89
2019-12-12 15:00:00 4.6 23 Oeste 55 Oeste 1.8 -- -- 87
2019-12-12 14:00:00 4 22 Oeste 52 Oeste 5 -- -- 86
2019-12-12 13:00:00 3.9 22 Oeste 51 Oeste 4.6 -- -- 85
2019-12-12 12:00:00 3.5 17 Oeste 51 Oeste 4 -- -- 87
2019-12-12 11:00:00 3.3 23 Oeste 53 Oeste 3.6 -- -- 85
2019-12-12 10:00:00 3.3 24 Oeste 53 Oeste 0.2 -- -- 88
2019-12-12 09:00:00 3.2 21 Oeste 52 Oeste 0.2 -- -- 89
2019-12-12 08:00:00 3 19 Oeste 49 Oeste 0 -- -- 86
2019-12-12 07:00:00 2.9 20 Oeste 49 Oeste 0 -- -- 85
2019-12-12 06:00:00 2.8 19 Oeste 51 Noroeste 0 -- -- 84
2019-12-12 05:00:00 3 17 Oeste 53 Oeste 0 -- -- 81
2019-12-12 04:00:00 2.7 14 Oeste 48 Oeste 0 -- -- 85
2019-12-12 03:00:00 2.3 12 Oeste 40 Oeste 0 -- -- 85
2019-12-12 02:00:00 1.9 20 Oeste 50 Noroeste 0 -- -- 88
2019-12-12 01:00:00 2 16 Oeste 47 Oeste 0 -- -- 85
2019-12-12 00:00:00 2.1 17 Oeste 56 Noroeste 0 -- -- 81
2019-12-11 23:00:00 2 18 Noroeste 50 Oeste 0 -- -- 81
2019-12-11 22:00:00 2 17 Oeste 48 Oeste 0 -- -- 81
2019-12-11 21:00:00 2.1 19 Oeste 48 Oeste 0 -- -- 81
2019-12-11 20:00:00 2.9 18 Oeste 63 Oeste 0 -- -- 79
2019-12-11 19:00:00 3.6 15 Noroeste 44 Oeste 0 -- -- 75
2019-12-11 18:00:00 3.7 18 Noroeste 48 Noroeste 0 -- -- 65
2019-12-11 17:00:00 3.8 21 Noroeste 52 Oeste 0 -- -- 68
2019-12-11 16:00:00 5 17 Noroeste 50 Oeste 0 -- -- 64
2019-12-11 15:00:00 5.6 21 Noroeste 50 Oeste 0.4 -- -- 66
2019-12-11 14:00:00 5.5 17 Noroeste 41 Noroeste 0.2 -- -- 75
2019-12-11 13:00:00 4.5 13 Noroeste 39 Noroeste 0.4 -- -- 87
2019-12-11 12:00:00 4.3 17 Oeste 42 Oeste 0.8 -- -- 92
2019-12-11 11:00:00 5.2 20 Oeste 48 Oeste 5.4 -- -- 90
2019-12-11 10:00:00 5.9 16 Oeste 45 Oeste 4.6 -- -- 88
2019-12-11 09:00:00 5 8 Oeste 34 Noroeste 1 -- -- 84
2019-12-11 08:00:00 6.8 11 Oeste 27 Oeste 0 -- -- 48
2019-12-11 07:00:00 2.6 2 Noroeste 8 Norte 0 -- -- 44
2019-12-11 06:00:00 0.8 2 Sudoeste 8 Sur 0 -- -- 57
2019-12-11 05:00:00 1.5 2 Sudoeste 11 Sudeste 0 -- -- 56
2019-12-11 04:00:00 2.3 0 Calma 9 Oeste 0 -- -- 60
2019-12-11 03:00:00 3.3 3 Sudoeste 9 Sur 0 -- -- 60
2019-12-11 02:00:00 6 3 Sur 18 Oeste 0 -- -- 46
2019-12-11 01:00:00 4.9 3 Sur 27 Sudoeste 0 -- -- 59
2019-12-11 00:00:00 1.7 3 Sudoeste 7 Oeste 0 -- -- 70
2019-12-10 23:00:00 2.8 3 Sudoeste 11 Sudoeste 0 -- -- 63
2019-12-10 22:00:00 1.7 3 Oeste 10 Sudoeste 0 -- -- 65
2019-12-10 21:00:00 2.5 2 Sur 8 Sudoeste 0 -- -- 66
2019-12-10 20:00:00 3.2 3 Oeste 10 Sur 0 -- -- 64
2019-12-10 19:00:00 4.2 0 Calma 6 Sur 0 -- -- 59
2019-12-10 18:00:00 7.8 0 Calma 6 Sur 0 -- -- 53
2019-12-10 17:00:00 11.1 0 Calma 19 Oeste 0 -- -- 36
2019-12-10 16:00:00 13.4 7 Oeste 19 Sudoeste 0 -- -- 23
2019-12-10 15:00:00 17.2 2 Sudoeste 14 Sudeste 0 -- -- 16
2019-12-10 14:00:00 16.1 8 Oeste 16 Oeste 0 -- -- 16
2019-12-10 13:00:00 14.5 3 Este 6 Nordeste 0 -- -- 30
2019-12-10 12:00:00 11.3 0 Calma 6 Sudeste 0 -- -- 27
2019-12-10 11:00:00 5 0 Calma 4 Sudeste 0 -- -- 59
2019-12-10 10:00:00 -0.6 0 Calma 3 Sudoeste 0 -- -- 83
2019-12-10 09:00:00 -3.5 0 Calma 5 Sudoeste 0 -- -- 85
2019-12-10 08:00:00 -3.6 3 Sudoeste 4 Sudoeste 0 -- -- 85
2019-12-10 07:00:00 -3.6 2 Sudoeste 4 Sudoeste 0 -- -- 84
2019-12-10 06:00:00 -3 3 Oeste 5 Sudoeste 0 -- -- 84
2019-12-10 05:00:00 -2.7 3 Sudoeste 6 Noroeste 0 -- -- 81
2019-12-10 04:00:00 -1.6 3 Oeste 7 Sudoeste 0 -- -- 75
2019-12-10 03:00:00 -1.2 2 Sudoeste 8 Oeste 0 -- -- 73
2019-12-10 02:00:00 -1.1 2 Sudoeste 8 Sudoeste 0 -- -- 73
2019-12-10 01:00:00 0.2 3 Sudoeste 12 Sur 0 -- -- 70
2019-12-10 00:00:00 0.7 3 Sur 7 Sur 0 -- -- 70
2019-12-09 23:00:00 3 3 Sudoeste 14 Sudoeste 0 -- -- 60
2019-12-09 22:00:00 3.4 2 Sudoeste 19 Norte 0 -- -- 60
2019-12-09 21:00:00 6.8 5 Norte 21 Oeste 0 -- -- 43
2019-12-09 20:00:00 5.4 6 Norte 15 Nordeste 0 -- -- 42
2019-12-09 19:00:00 4.4 3 Sudoeste 25 Sudeste 0 -- -- 50
2019-12-09 18:00:00 6.1 4 Sudoeste 14 Sur 0 -- -- 46
2019-12-09 17:00:00 8.1 6 Oeste 28 Oeste 0 -- -- 39
2019-12-09 16:00:00 9 7 Sudoeste 26 Sudoeste 0 -- -- 40
2019-12-09 15:00:00 9.6 9 Oeste 58 Noroeste 0 -- -- 40
2019-12-09 14:00:00 11.1 15 Noroeste 44 Oeste 0 -- -- 34
2019-12-09 13:00:00 11.3 15 Oeste 32 Oeste 0 -- -- 31
2019-12-09 12:00:00 10.9 9 Noroeste 35 Oeste 0 -- -- 30
2019-12-09 11:00:00 9.5 12 Noroeste 36 Oeste 0 -- -- 32
2019-12-09 10:00:00 7.8 10 Noroeste 35 Oeste 0 -- -- 42
2019-12-09 09:00:00 6.4 8 Noroeste 34 Oeste 0 -- -- 41
2019-12-09 08:00:00 5.9 9 Noroeste 26 Noroeste 0 -- -- 49
2019-12-09 07:00:00 4.1 9 Noroeste 28 Oeste 0 -- -- 62
2019-12-09 06:00:00 -0.5 3 Sudoeste 5 Sudoeste 0 -- -- 96
2019-12-09 05:00:00 0 2 Sudoeste 6 Noroeste 0.2 -- -- 95
2019-12-09 04:00:00 1.6 3 Sudoeste 9 Sur 0 -- -- 92
2019-12-09 03:00:00 3.2 3 Sudoeste 16 Sudoeste 0 -- -- 91
2019-12-09 02:00:00 2.8 4 Oeste 16 Noroeste 0 -- -- 96
2019-12-09 01:00:00 3.1 3 Sur 16 Sudoeste 0 -- -- 94
2019-12-09 00:00:00 4.4 0 Calma 13 Sur 0 -- -- 92
2019-12-08 23:00:00 6.5 3 Sur 11 Sur 0 -- -- 95
2019-12-08 22:00:00 7.2 0 Calma 7 Sudeste 0.2 -- -- 97
2019-12-08 21:00:00 6.9 2 Oeste 5 Oeste 0.2 -- -- 97
2019-12-08 20:00:00 7.1 0 Calma 4 Sudoeste 0.4 -- -- 97
2019-12-08 19:00:00 7.2 0 Calma 5 Sudoeste 0.4 -- -- 95
2019-12-08 18:00:00 8.3 0 Calma 14 Oeste 0.4 -- -- 92
2019-12-08 17:00:00 8.7 3 Oeste 22 Oeste 0.4 -- -- 90
2019-12-08 16:00:00 8.8 0 Calma 13 Sur 0.4 -- -- 91
2019-12-08 15:00:00 9.4 3 Sur 14 Sudoeste 0.2 -- -- 85
2019-12-08 14:00:00 10.9 3 Oeste 14 Oeste 0 -- -- 77
2019-12-08 13:00:00 10.8 3 Sudeste 16 Oeste 0 -- -- 76
2019-12-08 12:00:00 10.3 3 Este 17 Oeste 0 -- -- 76
2019-12-08 11:00:00 10.2 6 Oeste 19 Oeste 0 -- -- 71
2019-12-08 10:00:00 7.2 2 Oeste 22 Sudoeste 0.2 -- -- 79
2019-12-08 09:00:00 5.1 7 Oeste 22 Oeste 0 -- -- 82
2019-12-08 08:00:00 -0.8 5 Sudoeste 12 Sur 0 -- -- 99
2019-12-08 07:00:00 -1.5 2 Oeste 8 Sudoeste 0 -- -- 96
2019-12-08 06:00:00 -1.4 0 Calma 6 Noroeste 0 -- -- 96
2019-12-08 05:00:00 -1.3 2 Norte 9 Oeste 0 -- -- 97
2019-12-08 04:00:00 -1.4 2 Sudoeste 9 Oeste 0 -- -- 97
2019-12-08 03:00:00 -1.6 2 Sudoeste 5 Oeste 0 -- -- 97
2019-12-08 02:00:00 -1.5 2 Sudoeste 6 Sur 0 -- -- 97
2019-12-08 01:00:00 -1.2 0 Calma 5 Sudoeste 0 -- -- 97
2019-12-08 00:00:00 -0.8 0 Calma 4 Sur 0 -- -- 96
2019-12-07 23:00:00 -0.4 0 Calma 5 Oeste 0 -- -- 96
2019-12-07 22:00:00 0 0 Calma 4 Sudoeste 0 -- -- 95
2019-12-07 21:00:00 0.6 2 Sudoeste 5 Sur 0 -- -- 94
2019-12-07 20:00:00 1.3 0 Calma 3 Sudoeste 0 -- -- 93
2019-12-07 19:00:00 2.5 2 Oeste 4 Sudoeste 0 -- -- 89
2019-12-07 18:00:00 4.7 2 Sudoeste 4 Sur 0 -- -- 83
2019-12-07 17:00:00 10.2 0 Calma 5 Nordeste 0 -- -- 68
2019-12-07 16:00:00 14 0 Calma 6 Norte 0 -- -- 47
2019-12-07 15:00:00 14.3 2 Este 6 Este 0 -- -- 44
2019-12-07 14:00:00 13.2 0 Calma 6 Este 0 -- -- 44
2019-12-07 13:00:00 11.3 2 Este 6 Norte 0 -- -- 51
2019-12-07 12:00:00 7.9 0 Calma 4 Este 0 -- -- 69
2019-12-07 11:00:00 4.4 0 Calma 2 Este 0 -- -- 92
2019-12-07 10:00:00 0 0 Calma 2 Oeste 0 -- -- 98
2019-12-07 09:00:00 -2.4 0 Calma 3 Sudoeste 0 -- -- 97
2019-12-07 08:00:00 -2.5 0 Calma 2 Sudoeste 0 -- -- 97
2019-12-07 07:00:00 -2.4 0 Calma 2 Sudoeste 0 -- -- 97
2019-12-07 06:00:00 -2.4 0 Calma 3 Sudoeste 0 -- -- 96
2019-12-07 05:00:00 -2.1 0 Calma 4 Sur 0 -- -- 97
2019-12-07 04:00:00 -2 0 Calma 4 Sur 0 -- -- 97
2019-12-07 03:00:00 -1.9 0 Calma 3 Sudoeste 0 -- -- 97
2019-12-07 02:00:00 -1.5 0 Calma 3 Sudoeste 0 -- -- 97
2019-12-07 01:00:00 -1.3 2 Sudoeste 4 Oeste 0 -- -- 97
2019-12-07 00:00:00 -1.1 0 Calma 3 Sudoeste 0 -- -- 96
2019-12-06 23:00:00 -0.7 0 Calma 4 Sudoeste 0 -- -- 96
2019-12-06 22:00:00 -0.2 0 Calma 3 Oeste 0 -- -- 96
2019-12-06 21:00:00 0.4 2 Oeste 3 Sudoeste 0 -- -- 95
2019-12-06 20:00:00 1.3 0 Calma 3 Oeste 0 -- -- 94
2019-12-06 19:00:00 2.6 2 Sudoeste 3 Oeste 0 -- -- 91
2019-12-06 18:00:00 4.9 0 Calma 4 Sur 0 -- -- 85
2019-12-06 17:00:00 10.1 2 Norte 8 Nordeste 0 -- -- 68
2019-12-06 16:00:00 12.6 2 Sudeste 8 Este 0 -- -- 52
2019-12-06 15:00:00 12.7 3 Nordeste 10 Sudeste 0 -- -- 52
2019-12-06 14:00:00 12.3 4 Este 10 Este 0 -- -- 55
2019-12-06 13:00:00 10.8 4 Nordeste 9 Norte 0 -- -- 60
2019-12-06 12:00:00 8.9 3 Nordeste 8 Este 0 -- -- 67
2019-12-06 11:00:00 6.1 0 Calma 6 Sudeste 0 -- -- 80
2019-12-06 10:00:00 1.9 0 Calma 5 Sur 0 -- -- 98
2019-12-06 09:00:00 -0.8 0 Calma 3 Sur 0 -- -- 96
2019-12-06 08:00:00 0 2 Sudoeste 3 Sudoeste 0 -- -- 96
2019-12-06 07:00:00 1.5 0 Calma 3 Sudoeste 0 -- -- 94
2019-12-06 06:00:00 3.6 0 Calma 2 Sur 0 -- -- 94
2019-12-06 05:00:00 4.2 0 Calma 2 Sudoeste 0 -- -- 95
2019-12-06 04:00:00 4.4 2 Sudeste 6 Sudeste 0 -- -- 94
2019-12-06 03:00:00 4.3 0 Calma 4 Sur 0 -- -- 95
2019-12-06 02:00:00 4.4 0 Calma 4 Sur 0 -- -- 95
2019-12-06 01:00:00 4.4 0 Calma 6 Norte 0 -- -- 93
2019-12-06 00:00:00 4.2 0 Calma 6 Norte 0 -- -- 94
2019-12-05 23:00:00 3.9 2 Noroeste 5 Oeste 0 -- -- 95
2019-12-05 22:00:00 3.3 0 Calma 4 Sur 0 -- -- 96
2019-12-05 21:00:00 3.6 0 Calma 4 Este 0 -- -- 92
2019-12-05 20:00:00 5.7 2 Este 6 Nordeste 0 -- -- 84
2019-12-05 19:00:00 5.4 0 Calma 3 Sur 0 -- -- 91
2019-12-05 18:00:00 6.6 0 Calma 5 Nordeste 0 -- -- 85
2019-12-05 17:00:00 8.5 0 Calma 5 Sudeste 0 -- -- 73
2019-12-05 16:00:00 9 2 Sur 4 Sur 0 -- -- 71
2019-12-05 15:00:00 8.7 2 Sudeste 5 Sudeste 0 -- -- 72
2019-12-05 14:00:00 8.3 0 Calma 5 Oeste 0 -- -- 76
2019-12-05 13:00:00 7.6 3 Oeste 6 Oeste 0 -- -- 76
2019-12-05 12:00:00 6.9 2 Oeste 4 Noroeste 0 -- -- 83
2019-12-05 11:00:00 4.9 0 Calma 3 Oeste 0 -- -- 98
2019-12-05 10:00:00 3.9 0 Calma 4 Sur 0 -- -- 97
2019-12-05 09:00:00 3.2 0 Calma 3 Sudoeste 0 -- -- 98
2019-12-05 08:00:00 3.2 0 Calma 5 Sudoeste 0 -- -- 98
2019-12-05 07:00:00 3.2 0 Calma 6 Sur 0.4 -- -- 98
2019-12-05 06:00:00 3.1 0 Calma 4 Sur 0.4 -- -- 98
2019-12-05 05:00:00 2.9 2 Oeste 6 Sudeste 0.2 -- -- 98
2019-12-05 04:00:00 2.8 0 Calma 5 Oeste 0 -- -- 98
2019-12-05 03:00:00 2.8 0 Calma 6 Oeste 0 -- -- 98
2019-12-05 02:00:00 2.6 2 Sudoeste 5 Oeste 0 -- -- 98
2019-12-05 01:00:00 2.2 2 Sudoeste 7 Noroeste 0 -- -- 98
2019-12-05 00:00:00 1.6 2 Sudoeste 4 Noroeste 0 -- -- 97
2019-12-04 23:00:00 1.4 0 Calma 5 Sudoeste 0 -- -- 97
2019-12-04 22:00:00 1.5 2 Sudoeste 5 Sudoeste 0 -- -- 96
2019-12-04 21:00:00 2.5 3 Sudoeste 9 Sudoeste 0 -- -- 95
2019-12-04 20:00:00 3.8 2 Sur 6 Sur 0 -- -- 94
2019-12-04 19:00:00 5 2 Sur 8 Sudoeste 0 -- -- 94
2019-12-04 18:00:00 5.6 0 Calma 6 Sudoeste 0 -- -- 93
2019-12-04 17:00:00 6.3 0 Calma 7 Sudoeste 0 -- -- 90
2019-12-04 16:00:00 7.2 2 Sudoeste 7 Sur 0 -- -- 86
2019-12-04 15:00:00 8 2 Sur 10 Sur 0 -- -- 82
2019-12-04 14:00:00 7 3 Sur 8 Sudeste 0 -- -- 87
2019-12-04 13:00:00 6.2 0 Calma 6 Sudoeste 0 -- -- 90
2019-12-04 12:00:00 5.3 0 Calma 4 Sur 0 -- -- 94
2019-12-04 11:00:00 3.1 0 Calma 3 Sur 0 -- -- 98
2019-12-04 10:00:00 2.3 0 Calma 2 Sudeste 0 -- -- 98
2019-12-04 09:00:00 1.7 0 Calma 3 Sur 0 -- -- 98
2019-12-04 08:00:00 1.6 0 Calma 5 Noroeste 0 -- -- 98
2019-12-04 07:00:00 1.3 0 Calma 3 Sur 0.2 -- -- 98
2019-12-04 06:00:00 1 0 Calma 3 Sudoeste 0 -- -- 97
2019-12-04 05:00:00 0.8 0 Calma 4 Oeste 0.6 -- -- 97
2019-12-04 04:00:00 0.5 0 Calma 3 Sudoeste 0 -- -- 97
2019-12-04 03:00:00 0 0 Calma 3 Sudoeste 0 -- -- 97
2019-12-04 02:00:00 -0.3 0 Calma 3 Oeste 0 -- -- 96
2019-12-04 01:00:00 0.3 0 Calma 6 Sur 0 -- -- 96
2019-12-04 00:00:00 0.2 0 Calma 3 Sur 0 -- -- 96
2019-12-03 23:00:00 0.2 0 Calma 4 Sudeste 0 -- -- 96
2019-12-03 22:00:00 -0.3 0 Calma 5 Sudeste 0 -- -- 95
2019-12-03 21:00:00 -0.7 2 Sur 4 Noroeste 0 -- -- 95
2019-12-03 20:00:00 -0.5 2 Sudoeste 4 Sudoeste 0 -- -- 95
2019-12-03 19:00:00 -1.1 2 Sudoeste 4 Sudoeste 0 -- -- 92
2019-12-03 18:00:00 1.1 2 Sudoeste 4 Sur 0 -- -- 85
2019-12-03 17:00:00 5.9 2 Sudoeste 11 Nordeste 0 -- -- 68
2019-12-03 16:00:00 10.1 0 Calma 8 Norte 0 -- -- 43
2019-12-03 15:00:00 9.9 3 Este 10 Este 0 -- -- 46
2019-12-03 14:00:00 8.7 2 Nordeste 5 Este 0 -- -- 48
2019-12-03 13:00:00 7.2 3 Este 6 Norte 0 -- -- 55
2019-12-03 12:00:00 5.1 0 Calma 5 Este 0.2 -- -- 65
2019-12-03 11:00:00 2.1 0 Calma 4 Sudeste 0 -- -- 86
2019-12-03 10:00:00 -1.5 0 Calma 4 Sudeste 0 -- -- 97
2019-12-03 09:00:00 -4.5 0 Calma 2 Oeste 0 -- -- 96
2019-12-03 08:00:00 -4.4 0 Calma 2 Sudoeste 0 -- -- 96
2019-12-03 07:00:00 -4.1 0 Calma 3 Oeste 0 -- -- 96
2019-12-03 06:00:00 -3.9 0 Calma 3 Sudoeste 0 -- -- 95
2019-12-03 05:00:00 -3.6 0 Calma 3 Sudoeste 0 -- -- 96
2019-12-03 04:00:00 -3.3 2 Sudoeste 2 Oeste 0 -- -- 96
2019-12-03 03:00:00 -3 0 Calma 3 Oeste 0 -- -- 96
2019-12-03 02:00:00 -2.8 0 Calma 2 Sudoeste 0 -- -- 96
2019-12-03 01:00:00 -2.5 0 Calma 3 Sudoeste 0 -- -- 96
2019-12-03 00:00:00 -2.1 0 Calma 9 Sudoeste 0 -- -- 96
2019-12-02 23:00:00 -1.9 2 Sudoeste 4 Oeste 0 -- -- 96
2019-12-02 22:00:00 -1.6 0 Calma 3 Oeste 0 -- -- 96
2019-12-02 21:00:00 -1.3 0 Calma 5 Oeste 0 -- -- 95
2019-12-02 20:00:00 -0.8 0 Calma 3 Sudoeste 0 -- -- 94
2019-12-02 19:00:00 0.2 0 Calma 4 Sudoeste 0 -- -- 93
2019-12-02 18:00:00 2.6 0 Calma 5 Sudeste 0 -- -- 89
2019-12-02 17:00:00 7.5 2 Nordeste 12 Nordeste 0 -- -- 61
2019-12-02 16:00:00 9.1 4 Sudeste 19 Este 0 -- -- 55
2019-12-02 15:00:00 9.5 4 Nordeste 14 Sudeste 0 -- -- 53
2019-12-02 14:00:00 9 2 Sur 11 Sur 0.2 -- -- 59
2019-12-02 13:00:00 8.2 3 Sur 9 Sur 1.8 -- -- 66
2019-12-02 12:00:00 6.4 4 Sur 7 Sur 1.8 -- -- 75
2019-12-02 11:00:00 3.6 0 Calma 4 Sudeste 0.2 -- -- 90
2019-12-02 10:00:00 0.8 0 Calma 2 Oeste 0 -- -- 97
2019-12-02 09:00:00 -1.3 0 Calma -- -- 0 -- -- 97
2019-12-02 08:00:00 -1.4 0 Calma -- -- 0 -- -- 97
2019-12-02 07:00:00 -1 0 Calma -- -- 0 -- -- 97
2019-12-02 06:00:00 -0.6 0 Calma -- -- 0 -- -- 97
2019-12-02 05:00:00 -0.4 0 Calma 4 Norte 0.2 -- -- 97
2019-12-02 04:00:00 0 0 Calma 4 Norte 0 -- -- 97
2019-12-02 03:00:00 0.2 0 Calma 6 Sur 0 -- -- 97
2019-12-02 02:00:00 0.5 2 Sudoeste 3 Oeste 0.4 -- -- 97
2019-12-02 01:00:00 0.6 0 Calma 4 Sudoeste 0.4 -- -- 97
2019-12-02 00:00:00 0.4 0 Calma 2 Sudoeste 1.2 -- -- 97
2019-12-01 23:00:00 0.3 0 Calma 2 Oeste 1 -- -- 97
2019-12-01 22:00:00 0.2 0 Calma 2 Sudoeste 0.8 -- -- 97
2019-12-01 21:00:00 0.2 0 Calma 2 Sudoeste 0 -- -- 97
2019-12-01 20:00:00 0.3 0 Calma 2 Oeste 0.8 -- -- 96
2019-12-01 19:00:00 0.5 0 Calma 2 Sudoeste 0.8 -- -- 96
2019-12-01 18:00:00 0.8 0 Calma 0 Calma 0.8 -- -- 95
2019-12-01 17:00:00 1.3 0 Calma 2 Sudoeste 1.4 -- -- 94
2019-12-01 16:00:00 2.1 0 Calma 2 Sudeste 1.6 -- -- 92
2019-12-01 15:00:00 2.7 0 Calma 3 Norte 1.2 -- -- 89
2019-12-01 14:00:00 3.1 0 Calma 3 Noroeste 0.2 -- -- 92
2019-12-01 13:00:00 2.7 0 Calma 3 Sur 1.2 -- -- 91
2019-12-01 12:00:00 2.4 0 Calma 2 Este 0.2 -- -- 93
2019-12-01 11:00:00 1.4 0 Calma 3 Sur 0.2 -- -- 94
2019-12-01 10:00:00 0.8 0 Calma 2 Sur 0 -- -- 97
2019-12-01 09:00:00 0.5 0 Calma 6 Sudeste 0 -- -- 97
2019-12-01 08:00:00 0.1 0 Calma 4 Nordeste 0 -- -- 97
2019-12-01 07:00:00 0.6 0 Calma 4 Sudeste 0 -- -- 96
2019-12-01 06:00:00 0.5 0 Calma 8 Noroeste 0 -- -- 96
2019-12-01 05:00:00 0.2 0 Calma 6 Sudeste 0 -- -- 95
2019-12-01 04:00:00 1.4 2 Sudoeste 6 Sur 0 -- -- 95
2019-12-01 03:00:00 1.6 2 Sur 4 Oeste 0.2 -- -- 96
2019-12-01 02:00:00 1.4 2 Sudoeste 7 Sudeste 0 -- -- 95
2019-12-01 01:00:00 1.2 2 Oeste 6 Oeste 0 -- -- 94
2019-12-01 00:00:00 2.5 2 Sudoeste 17 Noroeste 0 -- -- 91
2019-11-30 23:00:00 4 6 Oeste 28 Oeste 0.2 -- -- 81
2019-11-30 22:00:00 4 11 Oeste 30 Sur 2.2 -- -- 83
2019-11-30 21:00:00 4 7 Oeste 38 Oeste 3 -- -- 87
2019-11-30 20:00:00 5.5 9 Noroeste 28 Norte 1.8 -- -- 83
2019-11-30 19:00:00 6.2 3 Norte 12 Nordeste 1.4 -- -- 87
2019-11-30 18:00:00 7.4 5 Oeste 33 Noroeste 3.4 -- -- 87
2019-11-30 17:00:00 10.9 9 Oeste 36 Oeste 0 -- -- 73
2019-11-30 16:00:00 13.2 8 Sudoeste 24 Oeste 0 -- -- 69
2019-11-30 15:00:00 14.7 9 Sudoeste 27 Sudoeste 0 -- -- 63
2019-11-30 14:00:00 14 6 Este 12 Este 0 -- -- 73
2019-11-30 13:00:00 11.4 4 Sudeste 13 Nordeste 0 -- -- 83
2019-11-30 12:00:00 8.5 0 Calma 4 Sur 0 -- -- 98
2019-11-30 11:00:00 7.5 0 Calma 5 Nordeste 0 -- -- 98
2019-11-30 10:00:00 6.7 0 Calma 4 Sur 0 -- -- 98
2019-11-30 09:00:00 6 0 Calma 3 Oeste 0 -- -- 98
2019-11-30 08:00:00 5.1 0 Calma 5 Oeste 0 -- -- 97
2019-11-30 07:00:00 6 0 Calma 8 Sur 0.2 -- -- 97
2019-11-30 06:00:00 6.1 2 Noroeste 4 Sur 0 -- -- 97
2019-11-30 05:00:00 6.7 0 Calma 4 Nordeste 0 -- -- 97
2019-11-30 04:00:00 6.5 0 Calma 3 Sudoeste 0 -- -- 97
2019-11-30 03:00:00 6.6 0 Calma 4 Sur 0 -- -- 97
2019-11-30 02:00:00 6.7 0 Calma 3 Sur 0 -- -- 98
2019-11-30 01:00:00 6.5 0 Calma 3 Sudoeste 0 -- -- 97
2019-11-30 00:00:00 6.2 2 Sudoeste 5 Oeste 0 -- -- 97
2019-11-29 23:00:00 5.8 0 Calma 4 Oeste 0 -- -- 97
2019-11-29 22:00:00 5.2 0 Calma 7 Oeste 0 -- -- 97
2019-11-29 21:00:00 5.5 0 Calma 4 Noroeste 0 -- -- 96
2019-11-29 20:00:00 6 0 Calma 8 Sur 0.2 -- -- 94
2019-11-29 19:00:00 7.4 2 Sudoeste 11 Sur 0 -- -- 92
2019-11-29 18:00:00 9 2 Sur 14 Oeste 0 -- -- 86
2019-11-29 17:00:00 10.3 3 Sudoeste 17 Oeste 0 -- -- 85
2019-11-29 16:00:00 11.3 4 Oeste 14 Oeste 0.2 -- -- 84
2019-11-29 15:00:00 11.5 5 Oeste 19 Oeste 0.4 -- -- 82
2019-11-29 14:00:00 13.2 3 Sur 15 Sudeste 0 -- -- 82
2019-11-29 13:00:00 11.4 3 Sur 26 Oeste 0.2 -- -- 87
2019-11-29 12:00:00 10.9 0 Calma 6 Sudeste 0.2 -- -- 93
2019-11-29 11:00:00 9.8 3 Sudeste 5 Sudeste 0.8 -- -- 96
2019-11-29 10:00:00 8.5 0 Calma 5 Sudoeste 0 -- -- 97
2019-11-29 09:00:00 8.2 2 Oeste 10 Sudeste 0.2 -- -- 95
2019-11-29 08:00:00 9.4 2 Sudoeste 30 Oeste 0.2 -- -- 90
2019-11-29 07:00:00 9.7 13 Oeste 31 Oeste 0.8 -- -- 89
2019-11-29 06:00:00 9.7 10 Oeste 41 Oeste 0.8 -- -- 90
2019-11-29 05:00:00 9.9 13 Oeste 46 Oeste 2 -- -- 90
2019-11-29 04:00:00 9.8 17 Oeste 42 Oeste 1.2 -- -- 90
2019-11-29 03:00:00 9.8 13 Oeste 41 Oeste 1.6 -- -- 89
2019-11-29 02:00:00 9.6 15 Oeste 42 Oeste 1.8 -- -- 89
2019-11-29 01:00:00 9.5 15 Oeste 42 Oeste 1.6 -- -- 88
2019-11-29 00:00:00 9.5 14 Oeste 41 Oeste 0.6 -- -- 86
2019-11-28 23:00:00 9.1 15 Oeste 45 Oeste 0 -- -- 85
2019-11-28 22:00:00 10.3 20 Oeste 42 Oeste 0 -- -- 70
2019-11-28 21:00:00 10.3 19 Oeste 48 Oeste 0 -- -- 68
2019-11-28 20:00:00 9.7 14 Oeste 42 Oeste 0 -- -- 71
2019-11-28 19:00:00 6.4 3 Sur 9 Sudeste 0 -- -- 89
2019-11-28 18:00:00 8.1 5 Nordeste 13 Este 0 -- -- 82
2019-11-28 17:00:00 10.1 3 Sur 27 Sudoeste 0 -- -- 66
2019-11-28 16:00:00 10.6 9 Noroeste 26 Oeste 0 -- -- 65
2019-11-28 15:00:00 11.5 10 Oeste 30 Oeste 0 -- -- 58
2019-11-28 14:00:00 11.2 9 Oeste 34 Oeste 0 -- -- 64
2019-11-28 13:00:00 11.2 9 Sudoeste 32 Oeste 0 -- -- 66
2019-11-28 12:00:00 9.8 8 Sudoeste 29 Oeste 0 -- -- 69
2019-11-28 11:00:00 9.3 5 Sur 30 Oeste 0 -- -- 73
2019-11-28 10:00:00 8.6 9 Sudoeste 43 Oeste 0 -- -- 75
2019-11-28 09:00:00 8.5 12 Oeste 39 Oeste 0 -- -- 77
2019-11-28 08:00:00 8.5 17 Oeste 45 Oeste 0 -- -- 77
2019-11-28 07:00:00 8.1 16 Oeste 46 Noroeste 0 -- -- 80
2019-11-28 06:00:00 7.2 16 Oeste 45 Oeste 0.2 -- -- 81
2019-11-28 05:00:00 7.4 18 Oeste 43 Noroeste 0 -- -- 79
2019-11-28 04:00:00 7.6 16 Oeste 40 Oeste 0 -- -- 79
2019-11-28 03:00:00 7.6 17 Oeste 42 Oeste 0 -- -- 77
2019-11-28 02:00:00 7.8 18 Oeste 41 Oeste 0 -- -- 75
2019-11-28 01:00:00 7.7 18 Oeste 49 Oeste 0 -- -- 75
2019-11-28 00:00:00 7.4 15 Oeste 42 Oeste 0.2 -- -- 76
2019-11-27 23:00:00 7.7 15 Oeste 39 Oeste 0 -- -- 74
2019-11-27 22:00:00 7.8 17 Oeste 36 Sudoeste 0 -- -- 73
2019-11-27 21:00:00 7.8 17 Oeste 40 Sudoeste 0 -- -- 73
2019-11-27 20:00:00 7.8 16 Oeste 44 Sudoeste 0 -- -- 69
2019-11-27 19:00:00 8 17 Oeste 47 Oeste 0 -- -- 67
2019-11-27 18:00:00 8.1 17 Oeste 40 Oeste 0 -- -- 68
2019-11-27 17:00:00 8.2 13 Oeste 37 Oeste 0.2 -- -- 68
2019-11-27 16:00:00 9.1 11 Oeste 25 Sudoeste 0 -- -- 65
2019-11-27 15:00:00 10.8 5 Oeste 26 Oeste 0 -- -- 61
2019-11-27 14:00:00 9.4 5 Sudoeste 27 Oeste 0 -- -- 64
2019-11-27 06:00:00 -- -- -- -- -- -- -- -- --
2019-11-27 05:00:00 6.6 19 Oeste 50 Oeste 0.2 -- -- 79
2019-11-27 04:00:00 8 13 Oeste 45 Oeste 0 -- -- 79
2019-11-27 03:00:00 8.6 21 Oeste 48 Oeste 0.2 -- -- 74
2019-11-27 02:00:00 8.6 4 Oeste 39 Oeste 2.6 -- -- 88
2019-11-27 01:00:00 8.9 8 Noroeste 39 Sur 2 -- -- 85
2019-11-27 00:00:00 8.7 10 Oeste 39 Oeste 1 -- -- 84
2019-11-26 23:00:00 11.4 14 Sudoeste 47 Sudoeste 0.2 -- -- 60
2019-11-26 22:00:00 10.8 9 Sudoeste 28 Oeste 0 -- -- 68
2019-11-26 21:00:00 10.2 5 Oeste 26 Sur 0 -- -- 82
2019-11-26 20:00:00 10.3 5 Sudoeste 23 Oeste 0 -- -- 85
2019-11-26 19:00:00 9.8 5 Sudoeste 31 Sudoeste 0.2 -- -- 85
2019-11-26 18:00:00 9.7 6 Sudoeste 28 Sur 0 -- -- 87
2019-11-26 17:00:00 8.7 2 Oeste 6 Sur 0 -- -- 92
2019-11-26 16:00:00 9.1 0 Calma 3 Nordeste 0 -- -- 87
2019-11-26 15:00:00 9.3 0 Calma 5 Este 0.2 -- -- 85
2019-11-26 14:00:00 9.5 0 Calma 8 Este 0 -- -- 84
2019-11-26 13:00:00 9.3 3 Sudeste 10 Este 0 -- -- 84
2019-11-26 12:00:00 8.4 3 Nordeste 6 Nordeste 0.2 -- -- 88
2019-11-26 11:00:00 7.4 2 Nordeste 4 Este 0 -- -- 90
2019-11-26 10:00:00 6.4 0 Calma 3 Sudeste 0 -- -- 96
2019-11-26 09:00:00 4.9 0 Calma 3 Sur 0 -- -- 97
2019-11-26 08:00:00 4.7 0 Calma 4 Sudeste 0 -- -- 97
2019-11-26 07:00:00 4.3 0 Calma 7 Sur 0 -- -- 96
2019-11-26 06:00:00 3.4 2 Oeste 5 Este 0 -- -- 94
2019-11-26 05:00:00 2.2 0 Calma 6 Oeste 0.2 -- -- 97
2019-11-26 04:00:00 2 0 Calma 5 Sudoeste 0 -- -- 94
2019-11-26 03:00:00 2.9 0 Calma 8 Oeste 0 -- -- 92
2019-11-26 02:00:00 3.1 2 Sudoeste 6 Sur 0 -- -- 92
2019-11-26 01:00:00 4.7 2 Sudoeste 12 Sudeste 0 -- -- 86
2019-11-26 00:00:00 6.6 3 Sur 33 Oeste 0 -- -- 79
2019-11-25 23:00:00 9.2 16 Oeste 31 Sudoeste 0 -- -- 67
2019-11-25 22:00:00 9.4 8 Sur 28 Noroeste 0.2 -- -- 70
2019-11-25 21:00:00 9.8 9 Este 39 Este 0 -- -- 71
2019-11-25 20:00:00 9.7 5 Sur 19 Sudeste 0 -- -- 70
2019-11-25 19:00:00 9.8 4 Sur 19 Sur 0 -- -- 71
2019-11-25 18:00:00 9.5 3 Sudoeste 11 Oeste 0 -- -- 74
2019-11-25 17:00:00 10.1 6 Oeste 24 Oeste 0 -- -- 71
2019-11-25 16:00:00 10.6 5 Sudoeste 35 Oeste 0.2 -- -- 68
2019-11-25 15:00:00 10.9 8 Sudoeste 25 Oeste 0 -- -- 68
2019-11-25 14:00:00 10.9 9 Oeste 25 Sudoeste 0 -- -- 70
2019-11-25 13:00:00 10.8 4 Sudoeste 22 Sudeste 0 -- -- 71
2019-11-25 12:00:00 10.1 6 Sudoeste 27 Sudoeste 0.2 -- -- 72
2019-11-25 11:00:00 9.3 5 Sur 29 Oeste 0 -- -- 77
2019-11-25 10:00:00 8.9 6 Sur 27 Sudoeste 0 -- -- 79
2019-11-25 09:00:00 8.5 8 Oeste 44 Noroeste 0 -- -- 79
2019-11-25 08:00:00 8.8 14 Oeste 48 Noroeste 0 -- -- 80
2019-11-25 07:00:00 8.5 15 Oeste 57 Oeste 1 -- -- 87
2019-11-25 06:00:00 8.8 19 Oeste 46 Oeste 1 -- -- 89
2019-11-25 05:00:00 8.4 17 Oeste 52 Noroeste 0.6 -- -- 89
2019-11-25 04:00:00 9.7 22 Oeste 58 Oeste 0.8 -- -- 87
2019-11-25 03:00:00 10.1 21 Oeste 50 Sudoeste 1.8 -- -- 88
2019-11-25 02:00:00 10.5 20 Oeste 46 Oeste 1.4 -- -- 86
2019-11-25 01:00:00 11.1 14 Oeste 38 Oeste 0 -- -- 79
2019-11-25 00:00:00 9.9 13 Oeste 32 Oeste 0.2 -- -- 84
2019-11-24 23:00:00 8.6 10 Oeste 40 Oeste 0.2 -- -- 85
2019-11-24 22:00:00 7.8 14 Oeste 40 Oeste 0 -- -- 83
2019-11-24 21:00:00 6.8 11 Oeste 30 Oeste 0 -- -- 89
2019-11-24 20:00:00 5.3 2 Sudeste 10 Sudoeste 0 -- -- 87
2019-11-24 19:00:00 5.7 3 Sudoeste 10 Sudoeste 0 -- -- 79
2019-11-24 18:00:00 5.8 2 Norte 9 Sudoeste 0 -- -- 71
2019-11-24 17:00:00 6.4 7 Noroeste 23 Oeste 0 -- -- 65
2019-11-24 16:00:00 8.1 8 Noroeste 22 Noroeste 0 -- -- 59
2019-11-24 15:00:00 7.6 3 Nordeste 19 Sur 0.2 -- -- 59
2019-11-24 14:00:00 6.2 3 Oeste 20 Sudeste 0 -- -- 61
2019-11-24 13:00:00 5.1 6 Oeste 22 Oeste 0 -- -- 68
2019-11-24 12:00:00 5.1 11 Oeste 23 Oeste 0 -- -- 67
2019-11-24 11:00:00 4.1 6 Oeste 23 Sudoeste 0 -- -- 72
2019-11-24 10:00:00 3.1 4 Sudeste 22 Noroeste 0 -- -- 78
2019-11-24 09:00:00 2.4 3 Sudeste 35 Oeste 0 -- -- 86
2019-11-24 08:00:00 2.3 6 Oeste 31 Norte 0 -- -- 89
2019-11-24 07:00:00 2.3 6 Sudoeste 25 Noroeste 0 -- -- 90
2019-11-24 06:00:00 2.6 5 Oeste 20 Noroeste 0 -- -- 90
2019-11-24 05:00:00 2.7 6 Noroeste 36 Oeste 0 -- -- 90
2019-11-24 04:00:00 3 13 Oeste 39 Noroeste 0 -- -- 88
2019-11-24 03:00:00 3.1 12 Noroeste 37 Oeste 0 -- -- 88
2019-11-24 02:00:00 3.1 12 Noroeste 47 Noroeste 0 -- -- 89
2019-11-24 01:00:00 3.2 12 Noroeste 45 Oeste 0 -- -- 89
2019-11-24 00:00:00 3.5 16 Noroeste 53 Oeste 0.2 -- -- 87
2019-11-23 23:00:00 3.8 12 Noroeste 41 Noroeste 0 -- -- 85
2019-11-23 22:00:00 4.1 12 Noroeste 40 Oeste 0 -- -- 82
2019-11-23 21:00:00 4.2 17 Oeste 45 Oeste 0 -- -- 80
2019-11-23 20:00:00 4.2 18 Oeste 48 Oeste 0.6 -- -- 82
2019-11-23 19:00:00 4 14 Oeste 36 Oeste 0.8 -- -- 86
2019-11-23 18:00:00 4.7 9 Oeste 42 Oeste 0.2 -- -- 81
2019-11-23 17:00:00 5 12 Oeste 44 Noroeste 0.2 -- -- 78
2019-11-23 16:00:00 4.9 9 Noroeste 34 Oeste 0.6 -- -- 80
2019-11-23 15:00:00 5.3 13 Noroeste 56 Noroeste 0 -- -- 70
2019-11-23 14:00:00 5.7 22 Noroeste 55 Noroeste 0.2 -- -- 69
2019-11-23 13:00:00 4.7 23 Noroeste 58 Noroeste 0.6 -- -- 77
2019-11-23 12:00:00 3.7 12 Oeste 57 Oeste 1.2 -- -- 80
2019-11-23 11:00:00 2.8 22 Noroeste 57 Oeste 1.2 -- -- 84
2019-11-23 10:00:00 1.8 24 Oeste 66 Oeste 0.8 -- -- 87
2019-11-23 09:00:00 1.6 19 Oeste 64 Oeste 1.2 -- -- 89
2019-11-23 08:00:00 1.8 16 Oeste 76 Oeste 1.6 -- -- 89
2019-11-23 07:00:00 1.9 27 Oeste 64 Oeste 3.4 -- -- 90
2019-11-23 06:00:00 2.1 33 Oeste 77 Oeste 5.4 -- -- 88
2019-11-23 05:00:00 2 21 Oeste 61 Oeste 6.4 -- -- 88
2019-11-23 04:00:00 2.4 31 Oeste 68 Noroeste 5.4 -- -- 87
2019-11-23 03:00:00 3.5 26 Oeste 60 Noroeste 0 -- -- 83
2019-11-23 02:00:00 3.7 22 Oeste 53 Sudoeste 2.4 -- -- 86
2019-11-23 01:00:00 4.5 15 Oeste 50 Oeste 1.8 -- -- 84
2019-11-23 00:00:00 5.2 23 Oeste 45 Sudoeste 1 -- -- 82
2019-11-22 23:00:00 6 13 Oeste 41 Oeste 0.6 -- -- 81
2019-11-22 22:00:00 6.4 19 Oeste 51 Oeste 0 -- -- 82
2019-11-22 21:00:00 6.1 9 Oeste 48 Noroeste 1 -- -- 85
2019-11-22 20:00:00 6.9 13 Oeste 32 Noroeste 0.8 -- -- 85
2019-11-22 19:00:00 7 10 Oeste 43 Oeste 0.8 -- -- 88
2019-11-22 18:00:00 8.9 8 Sudoeste 28 Oeste 0 -- -- 72
2019-11-22 17:00:00 9 6 Oeste 26 Sudoeste 0 -- -- 76
2019-11-22 16:00:00 11.3 10 Oeste 32 Oeste 0.2 -- -- 69
2019-11-22 15:00:00 11.1 5 Sudoeste 17 Oeste 0 -- -- 76
2019-11-22 14:00:00 7.3 3 Este 17 Este 1.6 -- -- 93
2019-11-22 13:00:00 7.1 0 Calma 32 Sur 0.2 -- -- 89
2019-11-22 12:00:00 7.6 13 Sudeste 39 Sudeste 0 -- -- 81
2019-11-22 11:00:00 6 6 Norte 13 Nordeste 0.2 -- -- 90
2019-11-22 10:00:00 4.8 3 Nordeste 12 Norte 1 -- -- 96
2019-11-22 09:00:00 4 3 Norte 7 Nordeste 1.2 -- -- 97
2019-11-22 08:00:00 3.3 0 Calma 8 Norte 0 -- -- 98
2019-11-22 07:00:00 2.8 0 Calma 4 Norte 0 -- -- 98
2019-11-22 06:00:00 2.7 0 Calma 3 Nordeste 0.2 -- -- 97
2019-11-22 05:00:00 2.5 0 Calma 4 Sudoeste 0 -- -- 97
2019-11-22 04:00:00 2.5 0 Calma 5 Nordeste 0 -- -- 97
2019-11-22 03:00:00 2.5 0 Calma 3 Este 0 -- -- 97
2019-11-22 02:00:00 2.4 0 Calma 4 Sudeste 0.2 -- -- 97
2019-11-22 01:00:00 2.4 0 Calma 3 Sur 0 -- -- 97
2019-11-22 00:00:00 2.2 0 Calma 4 Oeste 0 -- -- 97
2019-11-21 23:00:00 2.2 4 Sur 8 Sur 0 -- -- 96
2019-11-21 22:00:00 2.1 0 Calma 5 Sur 0.2 -- -- 96
2019-11-21 21:00:00 1.9 0 Calma 5 Sudeste 0 -- -- 96
2019-11-21 20:00:00 3 0 Calma 4 Sudoeste 0 -- -- 94
2019-11-21 19:00:00 3.9 0 Calma 6 Sudoeste 0.2 -- -- 95
2019-11-21 18:00:00 4.9 2 Sur 4 Oeste 0 -- -- 92
2019-11-21 17:00:00 5.6 0 Calma 3 Noroeste 0.2 -- -- 90
2019-11-21 16:00:00 5.9 0 Calma 4 Sur 0.2 -- -- 87
2019-11-21 15:00:00 5.5 0 Calma 7 Sudeste 0.2 -- -- 92
2019-11-21 14:00:00 4.9 0 Calma 5 Nordeste 0.4 -- -- 91
2019-11-21 13:00:00 3.6 2 Este 4 Nordeste 0.6 -- -- 93
2019-11-21 12:00:00 2.6 2 Nordeste 5 Este 0.4 -- -- 94
2019-11-21 11:00:00 1.9 0 Calma 5 Este 0.2 -- -- 95
2019-11-21 10:00:00 1.2 0 Calma 3 Noroeste 0.2 -- -- 96
2019-11-21 09:00:00 0.9 0 Calma 2 Sur 0.2 -- -- 97
2019-11-21 08:00:00 1 0 Calma 3 Sur 0 -- -- 97
2019-11-21 07:00:00 1.1 0 Calma 3 Sur 0.2 -- -- 97
2019-11-21 06:00:00 1.1 0 Calma 3 Sur 0 -- -- 97
2019-11-21 05:00:00 1.1 0 Calma 2 Oeste 0.2 -- -- 97
2019-11-21 04:00:00 1.1 0 Calma 2 Sudoeste 0 -- -- 97
2019-11-21 03:00:00 1.1 0 Calma 2 Oeste 0.2 -- -- 97
2019-11-21 02:00:00 1.1 0 Calma 2 Oeste 0.2 -- -- 97
2019-11-21 01:00:00 0.9 0 Calma 3 Sudoeste 0.2 -- -- 97
2019-11-21 00:00:00 0.9 0 Calma 3 Sudoeste 0.2 -- -- 97
2019-11-20 23:00:00 0.8 0 Calma 2 Sudoeste 0.2 -- -- 97
2019-11-20 22:00:00 0.6 0 Calma 2 Sudoeste 0.2 -- -- 96
2019-11-20 21:00:00 0.5 0 Calma 3 Oeste 0.2 -- -- 96
2019-11-20 20:00:00 0.4 0 Calma 3 Oeste 0.4 -- -- 96
2019-11-20 19:00:00 0.4 0 Calma 2 Oeste 0.2 -- -- 95
2019-11-20 18:00:00 0.8 0 Calma 2 Oeste 0.8 -- -- 93
2019-11-20 17:00:00 1.7 0 Calma 3 Oeste 1.2 -- -- 92
2019-11-20 16:00:00 2.4 0 Calma 5 Norte 0.4 -- -- 89
2019-11-20 15:00:00 3.9 3 Nordeste 7 Norte 0 -- -- 83
2019-11-20 14:00:00 4.5 2 Norte 6 Nordeste 0 -- -- 74
2019-11-20 13:00:00 4.2 0 Calma 9 Este 0 -- -- 74
2019-11-20 12:00:00 3.9 2 Nordeste 7 Este 0 -- -- 74
2019-11-20 11:00:00 3.1 0 Calma 5 Este 0 -- -- 75
2019-11-20 10:00:00 0.2 0 Calma 2 Sudoeste 0 -- -- 92
2019-11-20 09:00:00 -2.5 0 Calma 3 Sudoeste 0 -- -- 96
2019-11-20 08:00:00 -2.6 0 Calma 2 Oeste 0 -- -- 95
2019-11-20 07:00:00 -2.3 0 Calma 4 Sudoeste 0 -- -- 95
2019-11-20 06:00:00 -2.2 0 Calma 2 Sudoeste 0 -- -- 94
2019-11-20 05:00:00 -1.3 0 Calma 3 Sur 0 -- -- 95
2019-11-20 04:00:00 -1.7 0 Calma 2 Oeste 0 -- -- 96
2019-11-20 03:00:00 -2.2 0 Calma 3 Oeste 0 -- -- 95
2019-11-20 02:00:00 -2.5 0 Calma 2 Sudoeste 0 -- -- 95
2019-11-20 01:00:00 -2.7 0 Calma 3 Sudoeste 0 -- -- 94
2019-11-20 00:00:00 -2.4 0 Calma 3 Sur 0 -- -- 93
2019-11-19 23:00:00 -2 0 Calma 2 Sudoeste 0 -- -- 92
2019-11-19 22:00:00 -1.7 0 Calma 3 Sudoeste 0 -- -- 91
2019-11-19 21:00:00 -1.2 2 Sudoeste 3 Sudoeste 0 -- -- 90
2019-11-19 20:00:00 -0.3 0 Calma 3 Sur 0 -- -- 88
2019-11-19 19:00:00 0.9 0 Calma 4 Sur 0 -- -- 85
2019-11-19 18:00:00 3.5 3 Sudoeste 11 Noroeste 0 -- -- 75
2019-11-19 17:00:00 5.5 5 Noroeste 17 Noroeste 0 -- -- 64
2019-11-19 16:00:00 6.5 5 Noroeste 21 Noroeste 0 -- -- 60
2019-11-19 15:00:00 7.6 6 Oeste 18 Noroeste 0 -- -- 54
2019-11-19 14:00:00 8.5 5 Noroeste 17 Oeste 0 -- -- 47
2019-11-19 13:00:00 9.5 4 Este 11 Este 0 -- -- 45
2019-11-19 12:00:00 8.5 2 Sudeste 11 Sur 0 -- -- 51
2019-11-19 11:00:00 6.8 4 Sudeste 11 Sudeste 0 -- -- 58
2019-11-19 10:00:00 1.7 0 Calma 5 Sudoeste 0.2 -- -- 82
2019-11-19 09:00:00 -1.9 3 Sudoeste 6 Oeste 0 -- -- 93
2019-11-19 08:00:00 -3 3 Sudoeste 9 Oeste 0 -- -- 93
2019-11-19 07:00:00 -2.9 2 Sudoeste 7 Sur 0 -- -- 94
2019-11-19 06:00:00 -2.9 0 Calma 7 Sudoeste 0 -- -- 93
2019-11-19 05:00:00 -2.4 3 Sudoeste 12 Sudoeste 0 -- -- 93
2019-11-19 04:00:00 -2.2 2 Sudoeste 6 Oeste 0 -- -- 93
2019-11-19 03:00:00 -1.9 0 Calma 9 Oeste 0 -- -- 93
2019-11-19 02:00:00 -1.7 3 Sudoeste 6 Sur 0 -- -- 91
2019-11-19 01:00:00 -0.7 3 Sudoeste 9 Sur 0 -- -- 89
2019-11-19 00:00:00 1.3 3 Sur 18 Sudoeste 0 -- -- 83
2019-11-18 23:00:00 1.8 4 Oeste 24 Noroeste 0 -- -- 75
2019-11-18 22:00:00 1.3 4 Sudoeste 17 Oeste 0 -- -- 85
2019-11-18 21:00:00 1.1 3 Sudoeste 6 Sur 0 -- -- 92
2019-11-18 20:00:00 1.3 0 Calma 6 Oeste 0 -- -- 91
2019-11-18 19:00:00 1.8 0 Calma 10 Nordeste 0.2 -- -- 91
2019-11-18 18:00:00 3.3 4 Norte 10 Noroeste 0 -- -- 80
2019-11-18 17:00:00 4.2 3 Noroeste 14 Oeste 0 -- -- 71
2019-11-18 16:00:00 6.7 3 Norte 21 Sudeste 0 -- -- 59
2019-11-18 15:00:00 5 4 Este 29 Este 0.2 -- -- 64
2019-11-18 14:00:00 4.2 8 Sudeste 19 Sur 0 -- -- 69
2019-11-18 13:00:00 3.6 6 Sudeste 22 Nordeste 0 -- -- 73
2019-11-18 12:00:00 3 6 Norte 18 Norte 0 -- -- 77
2019-11-18 11:00:00 3.7 5 Norte 14 Nordeste 0.2 -- -- 78
2019-11-18 10:00:00 3 6 Norte 23 Nordeste 0 -- -- 81
2019-11-18 09:00:00 1.9 4 Este 33 Norte 0 -- -- 84
2019-11-18 08:00:00 0.5 4 Sur 11 Oeste 0.2 -- -- 89
2019-11-18 07:00:00 1.3 3 Nordeste 15 Sudoeste 0 -- -- 88
2019-11-18 06:00:00 1.5 5 Oeste 18 Noroeste 0.2 -- -- 89
2019-11-18 05:00:00 1.4 3 Norte 8 Norte 0.2 -- -- 91
2019-11-18 04:00:00 1.6 3 Norte 17 Oeste 0.4 -- -- 90
2019-11-18 03:00:00 1.6 3 Norte 21 Noroeste 0.2 -- -- 89
2019-11-18 02:00:00 2.1 3 Oeste 30 Sur 0 -- -- 87
2019-11-18 01:00:00 2.9 8 Oeste 45 Oeste 0.2 -- -- 80
2019-11-18 00:00:00 3.4 14 Noroeste 49 Norte 0 -- -- 77
2019-11-17 23:00:00 4.1 12 Noroeste 36 Oeste 0 -- -- 72
2019-11-17 22:00:00 4.6 15 Noroeste 37 Oeste 0.2 -- -- 74
2019-11-17 21:00:00 5.4 9 Noroeste 30 Oeste 0 -- -- 74
2019-11-17 20:00:00 5.5 6 Noroeste 38 Oeste 0.2 -- -- 79
2019-11-17 19:00:00 5.6 10 Oeste 29 Oeste 0 -- -- 80
2019-11-17 18:00:00 6.1 10 Oeste 41 Oeste 0.2 -- -- 77
2019-11-17 17:00:00 5.8 11 Oeste 39 Oeste 5.8 -- -- 88
2019-11-17 16:00:00 6.5 22 Oeste 51 Oeste 3 -- -- 86
2019-11-17 15:00:00 6.7 11 Oeste 44 Noroeste 3.8 -- -- 89
2019-11-17 14:00:00 6.9 13 Oeste 30 Noroeste 4.4 -- -- 88
2019-11-17 13:00:00 7.4 13 Oeste 37 Oeste 3 -- -- 86
2019-11-17 12:00:00 6.3 14 Oeste 31 Oeste 0.2 -- -- 84
2019-11-17 11:00:00 6.1 9 Oeste 24 Oeste 0.2 -- -- 81
2019-11-17 10:00:00 2.7 2 Nordeste 5 Este 0 -- -- 93
2019-11-17 09:00:00 1.3 0 Calma 8 Sur 0 -- -- 94
2019-11-17 08:00:00 0.9 0 Calma 17 Oeste 0 -- -- 91
2019-11-17 07:00:00 1.7 4 Sudeste 17 Noroeste 0 -- -- 89
2019-11-17 06:00:00 1.6 6 Sudoeste 28 Oeste 0 -- -- 88
2019-11-17 05:00:00 1.1 3 Sur 24 Sudoeste 0 -- -- 89
2019-11-17 04:00:00 1.1 5 Sur 28 Sur 0 -- -- 86
2019-11-17 03:00:00 1.3 6 Sudoeste 32 Oeste 0 -- -- 82
2019-11-17 02:00:00 1.7 5 Sudoeste 35 Noroeste 0 -- -- 76
2019-11-17 01:00:00 1.6 6 Sudoeste 27 Oeste 0 -- -- 75
2019-11-17 00:00:00 1.7 6 Sudoeste 22 Sudeste 0 -- -- 71
2019-11-16 23:00:00 1.6 3 Sur 22 Oeste 0 -- -- 73
2019-11-16 22:00:00 1.7 6 Oeste 27 Oeste 0.2 -- -- 75
2019-11-16 21:00:00 2 5 Sudoeste 26 Sudoeste 0.2 -- -- 76
2019-11-16 20:00:00 2.4 4 Oeste 21 Oeste 0.2 -- -- 72
2019-11-16 19:00:00 2.4 5 Oeste 17 Sudoeste 0.2 -- -- 72
2019-11-16 18:00:00 2.7 5 Sudoeste 19 Sudoeste 0.2 -- -- 68
2019-11-16 17:00:00 3.3 5 Sudoeste 18 Sudoeste 0.4 -- -- 69
2019-11-16 16:00:00 3.4 3 Sudoeste 17 Sudoeste 0.8 -- -- 67
2019-11-16 15:00:00 4 7 Oeste 23 Sur 1.2 -- -- 62
2019-11-16 14:00:00 5.4 5 Sudoeste 20 Oeste 2 -- -- 54
2019-11-16 13:00:00 5.3 4 Oeste 30 Oeste 2 -- -- 50
2019-11-16 12:00:00 5.7 6 Oeste 20 Oeste 2.2 -- -- 50
2019-11-16 11:00:00 4.5 3 Sudoeste 10 Oeste 1 -- -- 56
2019-11-16 10:00:00 1.7 4 Norte 18 Sudoeste 0.2 -- -- 65
2019-11-16 09:00:00 -1.8 2 Sur 7 Oeste 0 -- -- 90
2019-11-16 08:00:00 -1.3 0 Calma 24 Oeste 0 -- -- 84
2019-11-16 07:00:00 -0.7 5 Sur 18 Sur 0 -- -- 87
2019-11-16 06:00:00 -0.4 2 Sudoeste 15 Noroeste 0 -- -- 86
2019-11-16 05:00:00 -0.1 7 Oeste 16 Oeste 0.2 -- -- 82
2019-11-16 04:00:00 -0.1 4 Oeste 20 Oeste 0 -- -- 87
2019-11-16 03:00:00 0.2 3 Noroeste 12 Noroeste 0 -- -- 85
2019-11-16 02:00:00 0.3 4 Sudeste 23 Sudoeste 0 -- -- 84
2019-11-16 01:00:00 0.5 6 Noroeste 23 Oeste 0.2 -- -- 84
2019-11-16 00:00:00 0.7 8 Oeste 24 Oeste 0 -- -- 82
2019-11-15 23:00:00 0.7 5 Oeste 16 Oeste 0 -- -- 82
2019-11-15 22:00:00 0.6 8 Sur 23 Oeste 0.2 -- -- 86
2019-11-15 21:00:00 1.7 6 Oeste 27 Noroeste 0.4 -- -- 77
2019-11-15 20:00:00 1.9 5 Noroeste 26 Noroeste 0.4 -- -- 79
2019-11-15 19:00:00 2.2 9 Oeste 27 Noroeste 0.6 -- -- 76
2019-11-15 18:00:00 2.2 7 Oeste 26 Oeste 0.8 -- -- 75
2019-11-15 17:00:00 2.4 9 Oeste 33 Norte 1.4 -- -- 75
2019-11-15 16:00:00 2.8 8 Noroeste 28 Noroeste 2.4 -- -- 69
2019-11-15 15:00:00 3 6 Noroeste 31 Norte 2.2 -- -- 70
2019-11-15 14:00:00 3.4 8 Noroeste 31 Oeste 1.4 -- -- 71
2019-11-15 13:00:00 1.6 9 Noroeste 29 Oeste 0.8 -- -- 78
2019-11-15 12:00:00 0.7 8 Noroeste 32 Oeste 0.2 -- -- 87
2019-11-15 11:00:00 0.1 7 Oeste 32 Oeste 0.4 -- -- 88
2019-11-15 10:00:00 0.1 3 Sudoeste 12 Oeste 0 -- -- 86
2019-11-15 09:00:00 -0.2 3 Sudoeste 17 Oeste 0 -- -- 90
2019-11-15 08:00:00 -0.1 8 Oeste 30 Norte 0 -- -- 89
2019-11-15 07:00:00 0.1 9 Noroeste 30 Noroeste 0.2 -- -- 89
2019-11-15 06:00:00 0.5 5 Noroeste 22 Noroeste 0 -- -- 84
2019-11-15 05:00:00 0.1 5 Sudoeste 47 Norte 0.2 -- -- 88
2019-11-15 04:00:00 0.4 15 Oeste 50 Noroeste 0.2 -- -- 87
2019-11-15 03:00:00 0.5 15 Noroeste 52 Oeste 0.2 -- -- 88
2019-11-15 02:00:00 0.8 17 Noroeste 46 Noroeste 0.2 -- -- 81
2019-11-15 01:00:00 0.7 9 Noroeste 35 Noroeste 0.2 -- -- 86
2019-11-15 00:00:00 1.1 14 Noroeste 41 Oeste 0 -- -- 83